Collins, New York
Current Conditions -  °F | °C
As of 8:53 AM on Monday 24 Nov 2014 (Local Time) from KDKK Reporting Station
Overcast Overcast  
Wind Chill: 60°   Ceiling: 5500
Heat Index: 60°   Visibility: 10mi
Dew Point: 52°   Wind: 21mph
Humidity: 75%   Direction: 190°S
Pressure: 29.31"   Gusts: 26mph
Location:  42.5°N, 78.92°W
Report Text: KDKK 241353Z AUTO 19018G23KT 10SM FEW043 OVC055 16/11 A2931 RMK AO2 PK WND 19031/1314 SLP926 T01560111
Loading
Personal Weather Stations






























Interactive Weather Map New forecast layout! Learn more

10-Day Weather Forecast

Advertisements
Track Severe Weather on mobile